Time;durP1;ratioP1;P1;durP2;ratioP2;P2;SDS_P1;SDS_P2;PMS_P1;PMS_P2;Temp;Humidity;BMP_temperature;BMP_pressure;BME280_temperature;BME280_humidity;BME280_pressure;Samples;Min_cycle;Max_cycle;Signal;HPM_P1;HPM_P2
2022/06/01 00:00:57;;;;;;;14.23;2.88;;;15.40;83.50;;;;;;4974173;28;20046;-73
2022/06/01 00:03:24;;;;;;;8.63;2.15;;;15.40;83.60;;;;;;4980430;28;20555;-68
2022/06/01 00:05:53;;;;;;;17.45;3.00;;;15.40;83.60;;;;;;4980145;28;20034;-73
2022/06/01 00:08:21;;;;;;;9.52;3.17;;;15.40;83.60;;;;;;4976241;28;20050;-72
2022/06/01 00:10:49;;;;;;;6.38;2.42;;;15.40;83.80;;;;;;4979713;28;20053;-73
2022/06/01 00:13:15;;;;;;;15.73;3.05;;;15.40;83.70;;;;;;4978959;28;20431;-74
2022/06/01 00:15:42;;;;;;;10.23;2.10;;;15.40;83.70;;;;;;4977379;28;20072;-69
2022/06/01 00:18:09;;;;;;;20.60;2.55;;;15.40;83.70;;;;;;4979400;28;20050;-73
2022/06/01 00:20:35;;;;;;;9.30;2.15;;;15.40;83.80;;;;;;4980398;28;20022;-73
2022/06/01 00:23:02;;;;;;;7.57;2.45;;;15.40;83.80;;;;;;4977872;28;20031;-72
2022/06/01 00:25:29;;;;;;;14.82;2.70;;;15.40;83.70;;;;;;4974955;28;20410;-72
2022/06/01 00:27:55;;;;;;;10.82;2.45;;;15.40;83.60;;;;;;4972697;28;20034;-71
2022/06/01 00:30:23;;;;;;;7.38;3.33;;;15.40;83.70;;;;;;4976187;28;20093;-73
2022/06/01 00:32:50;;;;;;;10.38;2.15;;;15.40;83.70;;;;;;4975560;28;21141;-71
2022/06/01 00:35:19;;;;;;;8.27;2.50;;;15.40;83.70;;;;;;4973157;28;20114;-72
2022/06/01 00:37:46;;;;;;;7.60;2.08;;;15.40;83.80;;;;;;4975047;28;20033;-71
2022/06/01 00:40:15;;;;;;;16.88;2.63;;;15.30;83.70;;;;;;4974094;28;20038;-73
2022/06/01 00:42:44;;;;;;;7.68;2.80;;;15.30;83.60;;;;;;4974586;28;20050;-73
2022/06/01 00:45:14;;;;;;;12.63;3.45;;;15.30;83.70;;;;;;4979516;28;20030;-74
2022/06/01 00:47:41;;;;;;;15.38;3.30;;;15.30;83.80;;;;;;4976568;28;20031;-74
2022/06/01 00:50:23;;;;;;;18.05;3.38;;;15.30;83.80;;;;;;4977600;28;20019;-73
2022/06/01 00:53:03;;;;;;;30.98;4.07;;;15.30;84.00;;;;;;4975427;28;20053;-69
2022/06/01 00:56:09;;;;;;;14.35;2.83;;;15.30;84.40;;;;;;4978932;28;20035;-72
2022/06/01 00:59:15;;;;;;;15.77;3.63;;;15.30;84.30;;;;;;4988898;28;20037;-74
2022/06/01 01:02:21;;;;;;;12.60;3.40;;;15.30;84.30;;;;;;4982367;28;20131;-73
2022/06/01 01:05:27;;;;;;;7.72;2.70;;;15.30;84.30;;;;;;4984772;28;20030;-70
2022/06/01 01:08:33;;;;;;;10.32;2.28;;;15.30;84.40;;;;;;4985229;28;20065;-71
2022/06/01 01:11:39;;;;;;;10.73;2.55;;;15.30;84.30;;;;;;4982304;28;20030;-73
2022/06/01 01:14:46;;;;;;;7.88;2.67;;;15.30;84.40;;;;;;4983860;28;20042;-73
2022/06/01 01:17:52;;;;;;;6.97;3.05;;;15.30;84.40;;;;;;4979410;28;20080;-73
2022/06/01 01:21:01;;;;;;;16.42;3.03;;;15.30;84.50;;;;;;4980991;28;20898;-70
2022/06/01 01:24:00;;;;;;;14.63;4.13;;;15.30;84.60;;;;;;4980454;28;20023;-72
2022/06/01 01:27:07;;;;;;;10.80;2.63;;;15.30;84.60;;;;;;4986115;28;20099;-72
2022/06/01 01:30:13;;;;;;;11.85;3.13;;;15.30;84.60;;;;;;4982392;28;20030;-71
2022/06/01 01:33:19;;;;;;;9.45;2.85;;;15.30;84.40;;;;;;4980951;28;20049;-73
2022/06/01 01:36:28;;;;;;;20.33;3.50;;;15.30;84.20;;;;;;4984151;28;20121;-73
2022/06/01 01:39:52;;;;;;;14.38;2.63;;;15.30;84.20;;;;;;4977822;28;20041;-73
2022/06/01 01:42:58;;;;;;;15.00;3.30;;;15.20;83.80;;;;;;4982820;28;20504;-70
2022/06/01 01:46:04;;;;;;;11.77;3.67;;;15.20;83.70;;;;;;4977497;28;20018;-73
2022/06/01 01:49:10;;;;;;;10.38;3.70;;;15.20;83.50;;;;;;4978698;28;20042;-74
2022/06/01 01:52:16;;;;;;;9.73;2.22;;;15.10;83.40;;;;;;4983248;28;20445;-72
2022/06/01 01:55:37;;;;;;;13.77;3.00;;;15.10;83.50;;;;;;4979365;28;20030;-73
2022/06/01 01:58:32;;;;;;;10.00;2.78;;;15.10;84.20;;;;;;4982802;28;20026;-73
2022/06/01 02:01:44;;;;;;;8.85;2.83;;;15.10;83.50;;;;;;4977312;28;20034;-72
2022/06/01 02:08:18;;;;;;;9.73;2.88;;;15.10;83.50;;;;;;4977153;28;20401;-73
2022/06/01 02:14:45;;;;;;;11.05;3.30;;;15.00;83.30;;;;;;4978026;28;20095;-70
2022/06/01 02:17:18;;;;;;;11.30;2.90;;;15.00;83.00;;;;;;4983149;28;20451;-71
2022/06/01 02:20:04;;;;;;;10.30;3.20;;;15.00;82.90;;;;;;4979123;28;20026;-70
2022/06/01 02:22:31;;;;;;;10.70;3.15;;;14.90;82.80;;;;;;4976179;28;20127;-73
2022/06/01 02:24:58;;;;;;;12.63;3.45;;;14.90;82.80;;;;;;4979348;28;20026;-73
2022/06/01 02:27:25;;;;;;;18.92;4.18;;;14.90;82.80;;;;;;4975143;28;20051;-72
2022/06/01 02:30:01;;;;;;;10.25;3.58;;;14.90;82.80;;;;;;4977673;28;20027;-73
2022/06/01 02:32:28;;;;;;;11.40;2.92;;;14.90;82.70;;;;;;4978866;28;20014;-69
2022/06/01 02:34:58;;;;;;;6.43;3.13;;;14.80;82.60;;;;;;4978863;28;20015;-72
2022/06/01 02:37:29;;;;;;;10.15;3.55;;;14.80;82.50;;;;;;4976695;28;20034;-72
2022/06/01 02:39:58;;;;;;;9.63;3.08;;;14.80;82.60;;;;;;4980691;28;20026;-72
2022/06/01 02:42:31;;;;;;;17.83;4.65;;;14.80;82.40;;;;;;4979013;28;20386;-69
2022/06/01 02:45:10;;;;;;;15.60;3.58;;;14.80;82.20;;;;;;4980851;28;20122;-74
2022/06/01 02:47:43;;;;;;;15.30;4.53;;;14.80;82.30;;;;;;4983205;28;20093;-70
2022/06/01 02:50:13;;;;;;;14.27;3.88;;;14.80;82.20;;;;;;4981840;28;20057;-75
2022/06/01 02:52:40;;;;;;;10.20;3.88;;;14.80;82.10;;;;;;4977631;28;20057;-73
2022/06/01 02:55:08;;;;;;;8.82;3.63;;;14.70;82.00;;;;;;4978175;28;20030;-73
2022/06/01 02:57:37;;;;;;;12.35;4.05;;;14.70;82.00;;;;;;4977244;28;20385;-70
2022/06/01 03:00:09;;;;;;;10.00;3.90;;;14.70;81.80;;;;;;4980264;28;20030;-73
2022/06/01 03:02:47;;;;;;;12.82;3.55;;;14.70;81.50;;;;;;4976375;28;20097;-73
2022/06/01 03:05:16;;;;;;;8.93;3.97;;;14.70;81.30;;;;;;4976605;28;20030;-73
2022/06/01 03:07:42;;;;;;;14.18;3.75;;;14.60;81.20;;;;;;4973830;28;20034;-73
2022/06/01 03:10:09;;;;;;;8.13;3.67;;;14.70;81.50;;;;;;4976971;28;20431;-73
2022/06/01 03:12:39;;;;;;;11.70;6.28;;;14.60;81.30;;;;;;4981056;28;20031;-73
2022/06/01 03:15:08;;;;;;;10.38;4.45;;;14.60;80.70;;;;;;4978696;28;20092;-74
2022/06/01 03:17:35;;;;;;;11.30;3.10;;;14.60;80.40;;;;;;4977034;28;20625;-73
2022/06/01 03:20:03;;;;;;;12.18;3.88;;;14.60;80.10;;;;;;4977028;28;20072;-73
2022/06/01 03:22:29;;;;;;;8.70;3.65;;;14.50;79.90;;;;;;4979884;28;20075;-73
2022/06/01 03:24:56;;;;;;;11.48;2.95;;;14.60;80.00;;;;;;4977237;28;20444;-74
2022/06/01 03:27:22;;;;;;;10.38;3.47;;;14.50;79.90;;;;;;4977159;28;20065;-73
2022/06/01 03:29:49;;;;;;;10.50;3.28;;;14.50;79.80;;;;;;4977738;28;20031;-74
2022/06/01 03:32:15;;;;;;;10.98;4.30;;;14.50;79.60;;;;;;4980092;28;20019;-70
2022/06/01 03:34:41;;;;;;;16.02;4.78;;;14.50;79.50;;;;;;4978226;28;20022;-74
2022/06/01 03:37:08;;;;;;;7.93;3.60;;;14.40;79.50;;;;;;4976814;28;20027;-73
2022/06/01 03:39:34;;;;;;;12.68;4.10;;;14.50;79.50;;;;;;4979192;28;20033;-72
2022/06/01 03:42:01;;;;;;;12.10;4.35;;;14.40;79.70;;;;;;4979654;28;20045;-72
2022/06/01 03:48:31;;;;;;;14.93;8.25;;;14.40;79.80;;;;;;4977972;28;20065;-72
2022/06/01 03:50:59;;;;;;;19.85;4.90;;;14.40;79.90;;;;;;4975408;28;20908;-69
2022/06/01 03:53:29;;;;;;;8.77;4.63;;;14.30;79.80;;;;;;4981437;28;20030;-69
2022/06/01 03:56:02;;;;;;;7.50;3.65;;;14.30;79.90;;;;;;4981917;28;20030;-74
2022/06/01 03:58:29;;;;;;;12.45;3.40;;;14.30;79.80;;;;;;4972588;28;20065;-78
2022/06/01 04:00:56;;;;;;;10.45;3.90;;;14.30;79.80;;;;;;4979982;28;20029;-73
2022/06/01 04:03:23;;;;;;;8.93;4.00;;;14.30;79.80;;;;;;4974687;28;20018;-76
2022/06/01 04:05:49;;;;;;;5.47;2.70;;;14.30;79.80;;;;;;4977739;28;20473;-75
2022/06/01 04:08:16;;;;;;;13.25;3.60;;;14.30;79.80;;;;;;4974313;28;20035;-74
2022/06/01 04:10:44;;;;;;;12.88;2.72;;;14.30;79.60;;;;;;4982009;28;20023;-72
2022/06/01 04:13:14;;;;;;;3.30;2.15;;;14.20;79.40;;;;;;4977035;28;20027;-73
2022/06/01 04:15:44;;;;;;;8.50;3.15;;;14.20;80.30;;;;;;4978289;28;20117;-73
2022/06/01 04:18:11;;;;;;;8.98;3.08;;;14.30;81.00;;;;;;4978713;28;20058;-74
2022/06/01 04:20:38;;;;;;;28.52;17.13;;;14.30;81.00;;;;;;5046550;28;20041;-77
2022/06/01 04:23:04;;;;;;;26.42;13.68;;;14.20;80.90;;;;;;4976111;28;20045;-72
2022/06/01 04:25:31;;;;;;;23.85;12.45;;;14.20;80.80;;;;;;4981303;28;20495;-73
2022/06/01 04:27:57;;;;;;;12.23;6.43;;;14.20;80.70;;;;;;4974537;28;20043;-69
2022/06/01 04:30:24;;;;;;;13.88;4.97;;;14.20;80.80;;;;;;4976535;28;20071;-71
2022/06/01 04:32:53;;;;;;;12.60;4.82;;;14.20;80.90;;;;;;4976044;28;20109;-67
2022/06/01 04:35:22;;;;;;;14.80;8.57;;;14.20;80.60;;;;;;4980022;28;20029;-68
2022/06/01 04:37:48;;;;;;;31.20;20.80;;;14.20;80.40;;;;;;4976584;28;20026;-68
2022/06/01 04:40:16;;;;;;;24.55;15.18;;;14.20;80.40;;;;;;4978261;28;20029;-69
2022/06/01 04:42:43;;;;;;;20.00;9.32;;;14.20;80.40;;;;;;4977561;28;20015;-70
2022/06/01 04:45:12;;;;;;;11.18;6.43;;;14.20;80.40;;;;;;4980626;28;20018;-70
2022/06/01 04:47:40;;;;;;;13.98;5.07;;;14.20;80.40;;;;;;4978296;28;20485;-71
2022/06/01 04:50:07;;;;;;;8.15;3.88;;;14.20;80.40;;;;;;4980895;28;20019;-71
2022/06/01 04:52:34;;;;;;;15.68;4.78;;;14.20;80.20;;;;;;4978260;28;20065;-73
2022/06/01 04:55:01;;;;;;;9.55;4.22;;;14.10;80.00;;;;;;4975330;28;20023;-74
2022/06/01 04:57:28;;;;;;;10.63;4.25;;;14.10;79.90;;;;;;4982248;28;20027;-73
2022/06/01 04:59:54;;;;;;;13.13;3.72;;;14.10;79.90;;;;;;4974769;28;20034;-73
2022/06/01 05:02:20;;;;;;;8.80;5.07;;;14.10;80.00;;;;;;4975657;28;20019;-74
2022/06/01 05:04:47;;;;;;;15.15;5.53;;;14.10;80.00;;;;;;4976661;28;20018;-73
2022/06/01 05:07:13;;;;;;;11.88;5.50;;;14.00;79.90;;;;;;4975493;28;20133;-74
2022/06/01 05:09:40;;;;;;;8.18;6.30;;;14.00;79.90;;;;;;4978638;28;20545;-74
2022/06/01 05:12:07;;;;;;;9.05;5.03;;;14.00;79.90;;;;;;4975530;28;20126;-74
2022/06/01 05:14:33;;;;;;;17.67;5.15;;;14.00;79.90;;;;;;4978748;28;20535;-74
2022/06/01 05:17:00;;;;;;;8.25;4.65;;;14.00;80.00;;;;;;4975529;28;20046;-74
2022/06/01 05:19:27;;;;;;;11.15;4.90;;;14.00;80.00;;;;;;4979127;28;20023;-73
2022/06/01 05:21:54;;;;;;;10.18;4.80;;;14.00;80.10;;;;;;4977848;28;20105;-71
2022/06/01 05:24:20;;;;;;;12.88;5.00;;;14.00;80.10;;;;;;4972802;28;20061;-73
2022/06/01 05:27:26;;;;;;;14.73;7.25;;;14.00;80.20;;;;;;4976247;28;20665;-74
2022/06/01 05:30:32;;;;;;;18.90;10.00;;;14.00;80.10;;;;;;4975619;28;20029;-74
2022/06/01 05:33:39;;;;;;;21.38;11.70;;;14.00;80.20;;;;;;4978409;28;20541;-73
2022/06/01 05:36:45;;;;;;;27.50;13.60;;;13.90;80.30;;;;;;4979489;28;20023;-74
2022/06/01 05:39:52;;;;;;;16.83;9.40;;;13.90;80.30;;;;;;4982473;28;20034;-74
2022/06/01 05:42:58;;;;;;;18.88;9.15;;;13.90;80.40;;;;;;4979514;28;20031;-74
2022/06/01 05:46:04;;;;;;;11.65;6.93;;;13.90;80.30;;;;;;4978558;28;20125;-74
2022/06/01 05:49:10;;;;;;;19.42;4.90;;;13.90;80.30;;;;;;4985008;28;20062;-73
2022/06/01 05:52:19;;;;;;;9.35;3.78;;;13.90;80.40;;;;;;4978271;28;20023;-73
2022/06/01 05:55:30;;;;;;;8.73;3.65;;;13.90;80.40;;;;;;4978919;28;20480;-72
2022/06/01 05:58:36;;;;;;;11.70;3.70;;;13.90;80.40;;;;;;4980484;28;20031;-72
2022/06/01 06:01:42;;;;;;;14.05;4.35;;;13.80;80.30;;;;;;4978921;28;20022;-74
2022/06/01 06:04:49;;;;;;;13.93;4.18;;;13.90;80.50;;;;;;4979635;28;20107;-74
2022/06/01 06:07:55;;;;;;;9.52;4.90;;;13.90;80.70;;;;;;4981536;28;20439;-73
2022/06/01 06:11:01;;;;;;;11.55;4.22;;;13.80;80.60;;;;;;4978657;28;20026;-74
2022/06/01 06:14:07;;;;;;;9.85;4.25;;;13.80;80.60;;;;;;4977851;28;20030;-71
2022/06/01 06:17:13;;;;;;;7.88;4.07;;;13.80;80.70;;;;;;4979590;28;20046;-72
2022/06/01 06:20:19;;;;;;;15.90;4.53;;;13.80;80.80;;;;;;4982868;28;20026;-73
2022/06/01 06:23:25;;;;;;;13.93;5.28;;;13.80;81.10;;;;;;4982423;28;20045;-74
2022/06/01 06:26:31;;;;;;;12.75;4.40;;;13.90;81.20;;;;;;4981735;28;20573;-74
2022/06/01 06:29:37;;;;;;;12.38;4.82;;;13.80;81.40;;;;;;4978672;28;20046;-74
2022/06/01 06:32:43;;;;;;;11.02;4.28;;;13.80;81.60;;;;;;4975837;28;20417;-74
2022/06/01 06:35:49;;;;;;;14.82;5.28;;;13.90;81.70;;;;;;4979900;28;20023;-74
2022/06/01 06:38:55;;;;;;;10.73;4.85;;;13.80;81.90;;;;;;4982872;28;20424;-74
2022/06/01 06:42:01;;;;;;;9.40;4.45;;;13.90;82.20;;;;;;4981362;28;20026;-74
2022/06/01 06:44:28;;;;;;;11.18;5.03;;;13.90;82.50;;;;;;5051079;28;20031;-74
2022/06/01 06:46:55;;;;;;;20.33;4.85;;;13.90;82.70;;;;;;5051605;28;20903;-74
2022/06/01 06:49:21;;;;;;;16.20;5.32;;;13.90;83.10;;;;;;4976646;28;20022;-74
2022/06/01 06:51:49;;;;;;;15.13;5.13;;;13.90;83.20;;;;;;4978771;28;20367;-74
2022/06/01 06:54:17;;;;;;;21.80;5.55;;;13.90;83.40;;;;;;4984451;28;20045;-74
2022/06/01 06:56:44;;;;;;;14.82;5.93;;;13.90;83.60;;;;;;4976549;28;20022;-74
2022/06/01 06:59:15;;;;;;;17.05;7.28;;;14.00;83.90;;;;;;4980690;28;20022;-74
2022/06/01 07:01:42;;;;;;;18.58;6.97;;;14.00;84.20;;;;;;4975100;28;20512;-74
2022/06/01 07:04:10;;;;;;;21.60;7.55;;;14.00;84.40;;;;;;4979963;28;20036;-74
2022/06/01 07:06:36;;;;;;;22.95;7.10;;;14.00;84.50;;;;;;4978708;28;20043;-74
2022/06/01 07:09:03;;;;;;;24.55;6.60;;;14.00;84.60;;;;;;4976526;28;20473;-74
2022/06/01 07:11:31;;;;;;;27.17;8.00;;;14.00;84.70;;;;;;4979345;28;20030;-74
2022/06/01 07:13:58;;;;;;;21.63;6.90;;;14.10;85.10;;;;;;4978685;28;20489;-74
2022/06/01 07:16:32;;;;;;;42.17;9.93;;;14.10;85.10;;;;;;4981675;28;20054;-74
2022/06/01 07:19:00;;;;;;;24.30;7.97;;;14.20;85.20;;;;;;4977610;28;20031;-74
2022/06/01 07:21:28;;;;;;;28.63;7.85;;;14.20;85.50;;;;;;4981884;28;20439;-74
2022/06/01 07:23:55;;;;;;;19.02;9.35;;;14.30;85.80;;;;;;4978860;28;20026;-75
2022/06/01 07:26:33;;;;;;;26.42;9.90;;;14.30;86.20;;;;;;4977251;28;20039;-73
2022/06/01 07:29:00;;;;;;;22.13;9.63;;;14.30;86.50;;;;;;4977889;28;20026;-74
2022/06/01 07:31:26;;;;;;;27.77;8.63;;;14.40;86.70;;;;;;4980779;28;20031;-74
2022/06/01 07:33:53;;;;;;;25.70;8.77;;;14.40;86.90;;;;;;4979709;28;20056;-74
2022/06/01 07:36:20;;;;;;;28.77;9.40;;;14.50;87.00;;;;;;4979850;28;20031;-74
2022/06/01 07:44:29;;;;;;;19.73;8.30;;;14.50;86.50;;;;;;4978003;28;20507;-72
2022/06/01 07:46:56;;;;;;;24.55;7.07;;;14.50;86.40;;;;;;4975995;28;20596;-71
2022/06/01 07:49:23;;;;;;;21.08;7.10;;;14.60;86.40;;;;;;4977437;28;20033;-74
2022/06/01 07:51:49;;;;;;;21.08;6.30;;;14.60;86.50;;;;;;4979134;28;20031;-73
2022/06/01 07:54:16;;;;;;;12.38;5.60;;;14.60;86.40;;;;;;4980733;28;20027;-74
2022/06/01 07:56:43;;;;;;;13.40;5.25;;;14.70;86.40;;;;;;4979819;28;20041;-73
2022/06/01 07:59:10;;;;;;;14.90;6.25;;;14.70;86.40;;;;;;4978454;28;20447;-73
2022/06/01 08:01:37;;;;;;;13.52;5.70;;;14.70;86.30;;;;;;4978113;28;20050;-73
2022/06/01 08:04:06;;;;;;;14.82;7.47;;;14.70;86.30;;;;;;4974053;28;20030;-74
2022/06/01 08:06:34;;;;;;;18.02;6.65;;;14.80;86.30;;;;;;4978895;28;20093;-74
2022/06/01 08:09:01;;;;;;;18.33;6.55;;;14.90;86.30;;;;;;4978715;28;20414;-74
2022/06/01 08:14:14;;;;;;;9.85;5.38;;;14.90;86.30;;;;;;4974789;28;20072;-74
2022/06/01 08:16:44;;;;;;;31.98;7.32;;;14.90;86.40;;;;;;4979511;28;20019;-74
2022/06/01 08:19:11;;;;;;;15.45;6.47;;;15.00;86.60;;;;;;4977669;28;20357;-74
2022/06/01 08:21:39;;;;;;;21.23;5.95;;;15.00;87.10;;;;;;4975081;28;20050;-74
2022/06/01 08:24:06;;;;;;;19.58;5.25;;;15.10;87.20;;;;;;4979835;28;20023;-73
2022/06/01 08:26:34;;;;;;;18.08;5.72;;;15.10;87.20;;;;;;4975896;28;20042;-73
2022/06/01 08:29:00;;;;;;;13.20;5.47;;;15.20;87.30;;;;;;4979243;28;20033;-73
2022/06/01 08:31:29;;;;;;;13.73;6.00;;;15.10;87.20;;;;;;4976642;28;20032;-74
2022/06/01 08:34:00;;;;;;;17.95;5.07;;;15.20;87.30;;;;;;4975870;28;20027;-72
2022/06/01 08:36:26;;;;;;;19.67;5.95;;;15.20;87.30;;;;;;4977120;28;20026;-72
2022/06/01 08:38:53;;;;;;;16.60;5.22;;;15.30;87.30;;;;;;4979110;28;20026;-72
2022/06/01 08:41:24;;;;;;;21.60;4.88;;;15.30;87.30;;;;;;4979443;28;20439;-73
2022/06/01 08:43:54;;;;;;;11.65;3.88;;;15.30;87.30;;;;;;4979539;28;20015;-73
2022/06/01 08:46:22;;;;;;;13.60;5.25;;;15.30;87.30;;;;;;4980349;28;20027;-71
2022/06/01 08:49:03;;;;;;;18.17;4.18;;;15.30;87.30;;;;;;4980316;28;20037;-73
2022/06/01 08:51:31;;;;;;;14.15;5.25;;;15.40;87.40;;;;;;5047925;28;20450;-72
2022/06/01 08:54:01;;;;;;;24.15;4.80;;;15.40;87.40;;;;;;4975884;28;20022;-74
2022/06/01 08:56:50;;;;;;;11.82;4.72;;;15.40;87.40;;;;;;4980539;28;20031;-72
2022/06/01 08:59:43;;;;;;;11.82;4.50;;;15.50;87.40;;;;;;4980486;28;20097;-71
2022/06/01 09:02:12;;;;;;;17.90;4.70;;;15.50;87.30;;;;;;4978661;28;20477;-71
2022/06/01 09:04:51;;;;;;;14.93;4.10;;;15.60;87.40;;;;;;4975994;28;20034;-72
2022/06/01 09:07:28;;;;;;;15.15;4.55;;;15.60;87.30;;;;;;4981406;28;20466;-72
2022/06/01 09:10:06;;;;;;;10.50;3.28;;;15.70;87.30;;;;;;4980637;28;20473;-71
2022/06/01 09:12:35;;;;;;;8.13;3.08;;;15.80;87.30;;;;;;4981498;28;20040;-73
2022/06/01 09:15:21;;;;;;;7.43;2.53;;;15.80;87.30;;;;;;5049361;28;20405;-72
2022/06/01 09:17:47;;;;;;;;;;;15.90;87.40;;;;;;4985539;28;20019;-73
2022/06/01 09:23:03;;;;;;;7.68;2.17;;;16.00;87.30;;;;;;4975201;28;20045;-73
2022/06/01 09:25:34;;;;;;;9.57;3.15;;;16.10;87.20;;;;;;4982949;28;20027;-73
2022/06/01 09:28:24;;;;;;;15.52;2.47;;;16.10;87.10;;;;;;4984419;28;20030;-73
2022/06/01 09:31:00;;;;;;;13.77;3.22;;;16.20;87.10;;;;;;4981284;28;20409;-74
2022/06/01 09:33:32;;;;;;;10.82;2.90;;;16.30;87.00;;;;;;4978179;28;20026;-74
2022/06/01 09:36:02;;;;;;;12.10;3.47;;;16.30;86.90;;;;;;4979247;28;19999;-72
2022/06/01 09:38:42;;;;;;;13.95;4.00;;;16.40;86.80;;;;;;4978669;28;20026;-71
2022/06/01 09:41:31;;;;;;;7.93;2.55;;;16.40;86.50;;;;;;4981596;28;20027;-73
2022/06/01 09:44:17;;;;;;;11.68;3.65;;;16.50;86.40;;;;;;4976076;28;20019;-72
2022/06/01 09:46:58;;;;;;;7.68;2.03;;;16.50;86.30;;;;;;4981011;28;20075;-73
2022/06/01 09:49:35;;;;;;;8.18;2.65;;;16.60;85.90;;;;;;4975898;28;20408;-72
2022/06/01 09:52:11;;;;;;;20.13;2.88;;;16.70;85.60;;;;;;4984907;28;20023;-72
2022/06/01 09:54:43;;;;;;;12.77;2.78;;;16.80;85.40;;;;;;4984321;28;20015;-72
2022/06/01 09:57:28;;;;;;;7.40;2.03;;;16.80;85.10;;;;;;4980802;28;20037;-72
2022/06/01 10:08:25;;;;;;;13.20;2.38;;;17.10;84.30;;;;;;4980404;28;20440;-73
2022/06/01 10:11:17;;;;;;;7.57;2.83;;;17.20;83.80;;;;;;4982862;28;20057;-72
2022/06/01 10:14:01;;;;;;;11.55;2.60;;;17.30;83.20;;;;;;5008127;28;20497;-74
2022/06/01 10:16:46;;;;;;;7.05;2.20;;;17.30;82.60;;;;;;4980265;28;20030;-72
2022/06/01 10:19:18;;;;;;;14.15;2.88;;;17.40;82.40;;;;;;4979471;28;20019;-73
2022/06/01 10:21:57;;;;;;;9.15;2.00;;;17.40;82.30;;;;;;4979030;28;20046;-73
2022/06/01 10:24:32;;;;;;;15.95;3.05;;;17.50;82.30;;;;;;4978932;28;20072;-73
2022/06/01 10:27:00;;;;;;;8.25;2.60;;;17.60;82.30;;;;;;4978446;28;20026;-72
2022/06/01 10:29:32;;;;;;;8.23;1.85;;;17.70;82.20;;;;;;4978866;28;20027;-72
2022/06/01 10:32:14;;;;;;;6.35;1.60;;;17.70;81.50;;;;;;4981148;28;20106;-73
2022/06/01 10:34:56;;;;;;;6.80;1.95;;;17.80;81.30;;;;;;4977610;28;20394;-72
2022/06/01 10:37:37;;;;;;;8.15;2.90;;;17.90;81.30;;;;;;4978403;28;20100;-72
2022/06/01 10:40:38;;;;;;;8.48;2.35;;;17.90;80.90;;;;;;4981148;28;20023;-73
2022/06/01 10:43:21;;;;;;;5.28;2.25;;;18.00;80.60;;;;;;4981247;28;20022;-73
2022/06/01 10:45:55;;;;;;;5.22;1.88;;;18.10;80.70;;;;;;4978732;28;20103;-72
2022/06/01 10:48:49;;;;;;;7.68;2.42;;;18.10;80.50;;;;;;4982481;28;20030;-72
2022/06/01 10:51:35;;;;;;;7.38;2.15;;;18.20;80.00;;;;;;4977803;28;20062;-73
2022/06/01 10:54:34;;;;;;;4.05;2.15;;;18.20;79.80;;;;;;4976810;28;20055;-73
2022/06/01 10:57:10;;;;;;;6.50;2.00;;;18.30;79.70;;;;;;4980994;28;20019;-72
2022/06/01 10:59:38;;;;;;;5.88;1.92;;;18.40;79.10;;;;;;4979010;28;20698;-73
2022/06/01 11:02:34;;;;;;;6.95;2.25;;;18.40;78.00;;;;;;4982364;28;20409;-72
2022/06/01 11:05:13;;;;;;;7.82;2.33;;;18.50;77.30;;;;;;4991333;28;20390;-73
2022/06/01 11:07:53;;;;;;;9.93;1.60;;;18.50;77.10;;;;;;4982379;28;20053;-72
2022/06/01 11:10:39;;;;;;;7.25;2.38;;;18.60;77.30;;;;;;4975806;28;20033;-73
2022/06/01 11:13:14;;;;;;;;;;;18.50;77.10;;;;;;4976055;28;20075;-73
2022/06/01 11:16:04;;;;;;;3.83;1.83;;;18.50;77.00;;;;;;4978923;28;19906;-73
2022/06/01 11:18:43;;;;;;;6.70;2.10;;;18.60;77.10;;;;;;4976651;28;20142;-73
2022/06/01 11:21:34;;;;;;;16.25;5.20;;;18.60;77.20;;;;;;4979754;28;20026;-73
2022/06/01 11:24:13;;;;;;;14.68;4.05;;;18.70;77.30;;;;;;5051588;28;20412;-73
2022/06/01 11:27:06;;;;;;;17.15;5.45;;;18.70;77.00;;;;;;4978220;28;20035;-72
2022/06/01 11:29:38;;;;;;;17.63;3.80;;;18.80;76.70;;;;;;4976271;28;20026;-73
2022/06/01 11:32:13;;;;;;;14.32;3.60;;;18.80;76.70;;;;;;4975883;28;20389;-73
2022/06/01 11:35:16;;;;;;;11.88;3.55;;;18.80;76.70;;;;;;4976208;28;20041;-72
2022/06/01 11:38:08;;;;;;;17.65;4.05;;;18.80;76.60;;;;;;4976953;28;20394;-72
2022/06/01 11:40:57;;;;;;;11.55;4.07;;;18.80;76.90;;;;;;4977518;28;20042;-73
2022/06/01 11:43:53;;;;;;;8.07;3.47;;;18.80;76.90;;;;;;4977675;28;20022;-73
2022/06/01 11:46:24;;;;;;;;;;;18.90;76.70;;;;;;4976977;28;20041;-73
2022/06/01 11:48:57;;;;;;;11.68;3.40;;;19.00;76.60;;;;;;5052084;28;19916;-73
2022/06/01 11:51:48;;;;;;;17.63;4.57;;;19.00;76.20;;;;;;4972954;28;20031;-73
2022/06/01 11:54:29;;;;;;;11.75;3.67;;;19.00;76.00;;;;;;4978464;28;20136;-73
2022/06/01 11:57:17;;;;;;;11.27;3.00;;;19.00;76.00;;;;;;4978742;28;20053;-73
2022/06/01 12:00:15;;;;;;;12.48;2.83;;;19.00;75.70;;;;;;4979241;28;20061;-73
2022/06/01 12:02:43;;;;;;;8.65;2.83;;;19.00;75.70;;;;;;4984555;28;20049;-73
2022/06/01 12:05:32;;;;;;;11.10;3.17;;;19.00;75.50;;;;;;4979788;28;20018;-73
2022/06/01 12:08:17;;;;;;;12.50;3.45;;;19.00;75.40;;;;;;4975448;28;20076;-72
2022/06/01 12:10:56;;;;;;;9.45;2.95;;;19.00;75.40;;;;;;4977792;28;20022;-72
2022/06/01 12:13:30;;;;;;;15.15;4.13;;;19.00;75.50;;;;;;4979970;28;20023;-73
2022/06/01 12:16:19;;;;;;;9.43;3.03;;;19.10;75.40;;;;;;4976654;28;20139;-73
2022/06/01 12:19:18;;;;;;;10.88;3.28;;;19.10;75.40;;;;;;4980574;28;20275;-73
2022/06/01 12:21:45;;;;;;;11.00;5.40;;;19.10;75.20;;;;;;4977044;28;20034;-72
2022/06/01 12:30:08;;;;;;;10.93;2.53;;;19.20;74.90;;;;;;4970028;28;20440;-73
2022/06/01 12:32:59;;;;;;;9.40;2.42;;;19.30;74.60;;;;;;4976955;28;20710;-73
2022/06/01 12:35:49;;;;;;;9.80;3.15;;;19.30;74.50;;;;;;4980344;28;20019;-72
2022/06/01 12:38:23;;;;;;;7.05;3.20;;;19.30;74.20;;;;;;4975918;28;20022;-73
2022/06/01 12:41:02;;;;;;;7.38;2.28;;;19.30;74.10;;;;;;4981002;28;20061;-73
2022/06/01 12:43:30;;;;;;;4.88;1.90;;;19.40;74.00;;;;;;4981908;28;20034;-73
2022/06/01 12:45:56;;;;;;;9.80;2.55;;;19.40;74.20;;;;;;4984400;28;20121;-73
2022/06/01 12:48:24;;;;;;;5.07;2.53;;;19.50;74.20;;;;;;4980171;28;20045;-73
2022/06/01 12:50:50;;;;;;;7.80;2.38;;;19.50;74.00;;;;;;4981804;28;20110;-73
2022/06/01 12:53:39;;;;;;;3.00;2.10;;;19.50;73.90;;;;;;4981561;28;21023;-73
2022/06/01 12:56:07;;;;;;;6.78;2.10;;;19.60;73.70;;;;;;4975546;28;20030;-72
2022/06/01 12:58:35;;;;;;;13.43;3.03;;;19.60;73.80;;;;;;4980017;28;20070;-73
2022/06/01 13:01:03;;;;;;;9.05;3.28;;;19.60;73.90;;;;;;4979131;28;20378;-73
2022/06/01 13:03:33;;;;;;;8.30;3.03;;;19.60;74.10;;;;;;4979987;28;20018;-73
2022/06/01 13:06:02;;;;;;;7.47;2.10;;;19.70;74.00;;;;;;4982384;28;20064;-73
2022/06/01 13:08:37;;;;;;;14.48;2.30;;;19.70;73.90;;;;;;5061249;28;20045;-73
2022/06/01 13:11:31;;;;;;;9.23;2.75;;;19.70;73.70;;;;;;5064229;28;20120;-73
2022/06/01 13:14:00;;;;;;;9.80;2.88;;;19.70;73.70;;;;;;5058296;28;20240;-73
2022/06/01 13:16:39;;;;;;;9.50;2.95;;;19.70;73.60;;;;;;5065309;28;20393;-73
2022/06/01 13:19:34;;;;;;;8.93;3.33;;;19.70;73.90;;;;;;5065490;28;20032;-73
2022/06/01 13:22:07;;;;;;;9.45;3.33;;;19.60;73.90;;;;;;5054236;28;20510;-74
2022/06/01 13:24:47;;;;;;;11.88;3.85;;;19.60;73.80;;;;;;5062422;28;20090;-73
2022/06/01 13:27:14;;;;;;;4.00;1.73;;;19.60;74.20;;;;;;5061425;28;20428;-73
2022/06/01 13:29:49;;;;;;;9.75;2.35;;;19.60;74.30;;;;;;5061483;28;20016;-73
2022/06/01 13:32:18;;;;;;;10.65;1.95;;;19.50;74.30;;;;;;5062946;28;20047;-73
2022/06/01 13:34:48;;;;;;;11.27;2.60;;;19.50;74.30;;;;;;5059555;28;20500;-73
2022/06/01 13:37:17;;;;;;;6.07;1.98;;;19.50;74.20;;;;;;5062060;28;20112;-73
2022/06/01 13:40:06;;;;;;;10.07;2.50;;;19.50;74.00;;;;;;5059776;28;20392;-73
2022/06/01 13:42:48;;;;;;;8.45;3.13;;;19.50;73.90;;;;;;5063761;28;20016;-73
2022/06/01 13:45:20;;;;;;;15.15;3.05;;;19.50;73.90;;;;;;5062303;28;20040;-72
2022/06/01 13:47:53;;;;;;;7.68;2.00;;;19.40;74.10;;;;;;5060009;28;20383;-73
2022/06/01 13:50:28;;;;;;;7.13;2.53;;;19.40;74.90;;;;;;5057497;28;20096;-73
2022/06/01 13:52:55;;;;;;;7.55;2.53;;;19.40;74.20;;;;;;5064600;28;20021;-73
2022/06/01 13:55:23;;;;;;;8.50;2.53;;;19.40;74.20;;;;;;5060350;28;20380;-73
2022/06/01 13:58:08;;;;;;;9.43;2.10;;;19.40;74.30;;;;;;5063351;28;20025;-73
2022/06/01 14:00:46;;;;;;;6.63;2.10;;;19.40;74.00;;;;;;5061452;28;20510;-73
2022/06/01 14:03:25;;;;;;;9.05;2.80;;;19.40;74.00;;;;;;5064813;28;20031;-73
2022/06/01 14:06:00;;;;;;;10.25;2.88;;;19.30;74.00;;;;;;5062707;28;20043;-73
2022/06/01 14:08:27;;;;;;;6.63;1.70;;;19.30;74.00;;;;;;4980446;28;20051;-73
2022/06/01 14:10:54;;;;;;;7.47;2.00;;;19.30;74.20;;;;;;4981080;28;20041;-73
2022/06/01 14:13:23;;;;;;;12.68;2.05;;;19.30;74.30;;;;;;4980599;28;20075;-72